createdAt,value
2023-05-10T00:01:05.347Z,3.50
2023-05-10T00:03:32.868Z,3.37
2023-05-10T00:06:00.345Z,3.87
2023-05-10T00:08:27.684Z,4.23
2023-05-10T00:10:55.008Z,4.30
2023-05-10T00:13:23.020Z,4.07
2023-05-10T00:15:50.420Z,3.60
2023-05-10T00:18:17.731Z,3.97
2023-05-10T00:20:46.967Z,3.43
2023-05-10T00:23:14.345Z,4.00
2023-05-10T00:25:41.705Z,3.43
2023-05-10T00:28:09.042Z,3.67
2023-05-10T00:30:38.464Z,3.80
2023-05-10T00:33:06.057Z,3.27
2023-05-10T00:35:33.475Z,3.43
2023-05-10T00:38:00.891Z,4.27
2023-05-10T00:40:29.626Z,4.30
2023-05-10T00:43:01.494Z,3.57
2023-05-10T00:45:29.041Z,4.07
2023-05-10T00:47:57.093Z,3.60
2023-05-10T00:50:25.041Z,4.07
2023-05-10T00:52:52.513Z,3.90
2023-05-10T00:55:21.820Z,4.30
2023-05-10T00:57:49.161Z,3.83
2023-05-10T01:00:19.850Z,3.47
2023-05-10T01:02:47.864Z,3.93
2023-05-10T01:05:15.387Z,4.47
2023-05-10T01:07:42.814Z,4.30
2023-05-10T01:10:11.548Z,3.97
2023-05-10T01:12:39.996Z,4.37
2023-05-10T01:15:08.600Z,4.87
2023-05-10T01:17:37.411Z,4.03
2023-05-10T01:20:05.110Z,4.17
2023-05-10T01:22:32.374Z,4.13
2023-05-10T01:25:05.696Z,4.40
2023-05-10T01:27:59.810Z,4.57
2023-05-10T01:30:42.505Z,3.77
2023-05-10T01:33:12.773Z,4.30
2023-05-10T01:35:40.071Z,4.33
2023-05-10T01:38:10.467Z,4.33
2023-05-10T01:40:44.350Z,4.50
2023-05-10T01:43:14.931Z,5.07
2023-05-10T01:45:47.817Z,4.10
2023-05-10T01:48:15.790Z,4.50
2023-05-10T01:50:44.789Z,4.37
2023-05-10T01:53:13.393Z,3.63
2023-05-10T01:55:44.671Z,4.10
2023-05-10T01:58:15.050Z,5.40
2023-05-10T02:00:44.442Z,4.30
2023-05-10T02:03:12.863Z,4.00
2023-05-10T02:05:41.329Z,4.63
2023-05-10T02:08:09.545Z,3.93
2023-05-10T02:10:38.732Z,5.27
2023-05-10T02:13:07.331Z,4.40
2023-05-10T02:15:35.103Z,4.63
2023-05-10T02:18:04.066Z,4.40
2023-05-10T02:20:33.022Z,4.57
2023-05-10T02:23:01.816Z,5.03
2023-05-10T02:25:30.400Z,4.50
2023-05-10T02:27:58.470Z,4.47
2023-05-10T02:30:26.323Z,4.03
2023-05-10T02:32:53.869Z,4.30
2023-05-10T02:35:21.638Z,4.93
2023-05-10T02:37:49.466Z,4.97
2023-05-10T02:40:18.276Z,4.43
2023-05-10T02:42:46.161Z,4.67
2023-05-10T02:45:14.348Z,5.20
2023-05-10T02:47:44.730Z,4.67
2023-05-10T02:50:12.264Z,4.40
2023-05-10T02:52:45.972Z,4.27
2023-05-10T02:55:14.235Z,4.30
2023-05-10T02:57:43.712Z,4.10
2023-05-10T03:00:11.705Z,4.57
2023-05-10T03:02:39.174Z,4.33
2023-05-10T03:05:06.731Z,4.83
2023-05-10T03:07:34.951Z,3.67
2023-05-10T03:10:02.672Z,3.73
2023-05-10T03:12:40.469Z,3.77
2023-05-10T03:15:10.744Z,3.90
2023-05-10T03:17:42.951Z,4.27
2023-05-10T03:20:15.652Z,3.83
2023-05-10T03:22:47.174Z,3.53
2023-05-10T03:25:17.192Z,4.13
2023-05-10T03:27:45.600Z,4.37
2023-05-10T03:30:14.158Z,3.73
2023-05-10T03:32:42.391Z,4.10
2023-05-10T03:35:14.238Z,4.00
2023-05-10T03:37:42.436Z,3.80
2023-05-10T03:40:10.144Z,3.20
2023-05-10T03:42:39.800Z,3.70
2023-05-10T03:45:08.097Z,3.07
2023-05-10T03:47:35.554Z,3.40
2023-05-10T03:50:03.446Z,3.23
2023-05-10T03:52:32.638Z,3.27
2023-05-10T03:55:00.042Z,3.73
2023-05-10T03:57:27.437Z,3.70
2023-05-10T03:59:54.822Z,3.43
2023-05-10T04:02:22.294Z,3.40
2023-05-10T04:04:49.670Z,3.07
2023-05-10T04:07:17.048Z,3.33
2023-05-10T04:09:44.445Z,3.07
2023-05-10T04:12:11.725Z,4.20
2023-05-10T04:14:39.100Z,3.53
2023-05-10T04:17:07.260Z,3.37
2023-05-10T04:19:34.859Z,3.30
2023-05-10T04:22:03.783Z,3.17
2023-05-10T04:24:31.129Z,3.13
2023-05-10T04:26:58.469Z,3.20
2023-05-10T04:29:25.916Z,3.23
2023-05-10T04:31:53.343Z,3.43
2023-05-10T04:34:22.104Z,3.50
2023-05-10T04:36:49.443Z,3.30
2023-05-10T04:39:16.762Z,3.37
2023-05-10T04:41:44.128Z,2.90
2023-05-10T04:44:11.429Z,3.77
2023-05-10T04:46:38.827Z,3.83
2023-05-10T04:49:06.366Z,3.37
2023-05-10T04:51:33.732Z,3.47
2023-05-10T04:54:06.557Z,3.17
2023-05-10T04:56:34.624Z,3.23
2023-05-10T04:59:02.201Z,4.00
2023-05-10T05:01:29.512Z,3.73
2023-05-10T05:03:57.072Z,3.20
2023-05-10T05:06:25.834Z,3.03
2023-05-10T05:08:53.188Z,3.20
2023-05-10T05:11:20.664Z,3.37
2023-05-10T05:13:47.927Z,3.80
2023-05-10T05:16:15.554Z,3.73
2023-05-10T05:18:42.889Z,3.20
2023-05-10T05:21:17.304Z,3.83
2023-05-10T05:23:44.947Z,3.17
2023-05-10T05:26:12.548Z,2.73
2023-05-10T05:28:39.946Z,3.13
2023-05-10T05:31:08.416Z,3.00
2023-05-10T05:33:36.208Z,2.73
2023-05-10T05:36:04.237Z,3.20
2023-05-10T05:38:31.634Z,3.27
2023-05-10T05:40:59.318Z,3.13
2023-05-10T05:43:26.681Z,3.43
2023-05-10T05:45:54.965Z,3.20
2023-05-10T05:48:22.583Z,3.50
2023-05-10T05:50:49.863Z,2.97
2023-05-10T05:53:17.196Z,3.20
2023-05-10T05:55:55.092Z,3.50
2023-05-10T05:58:22.962Z,3.30
2023-05-10T06:00:50.339Z,3.40
2023-05-10T06:03:17.944Z,3.43
2023-05-10T06:05:45.497Z,3.10
2023-05-10T06:08:12.866Z,3.90
2023-05-10T06:10:40.321Z,3.27
2023-05-10T06:13:07.744Z,2.93
2023-05-10T06:15:35.632Z,4.13
2023-05-10T06:18:03.050Z,2.80
2023-05-10T06:20:32.600Z,3.33
2023-05-10T06:23:00.362Z,3.30
2023-05-10T06:25:28.202Z,3.13
2023-05-10T06:27:58.519Z,2.83
2023-05-10T06:30:29.303Z,2.97
2023-05-10T06:32:56.986Z,3.27
2023-05-10T06:35:24.417Z,2.60
2023-05-10T06:37:52.666Z,2.87
2023-05-10T06:40:20.479Z,3.13
2023-05-10T06:42:49.216Z,2.97
2023-05-10T06:45:17.439Z,3.07
2023-05-10T06:47:45.398Z,2.40
2023-05-10T06:50:13.185Z,2.70
2023-05-10T06:52:40.729Z,2.93
2023-05-10T06:55:08.401Z,2.80
2023-05-10T06:57:36.065Z,2.53
2023-05-10T07:00:05.220Z,2.10
2023-05-10T07:02:32.884Z,2.43
2023-05-10T07:05:02.690Z,2.17
2023-05-10T07:07:30.780Z,2.20
2023-05-10T07:09:58.642Z,2.53
2023-05-10T07:12:26.321Z,2.23
2023-05-10T07:14:53.898Z,2.60
2023-05-10T07:17:21.335Z,2.57
2023-05-10T07:19:48.713Z,2.80
2023-05-10T07:22:19.165Z,2.20
2023-05-10T07:24:46.590Z,2.30
2023-05-10T07:27:14.077Z,2.27
2023-05-10T07:29:41.422Z,2.60
2023-05-10T07:32:08.784Z,2.27
2023-05-10T07:34:36.259Z,2.60
2023-05-10T07:37:03.699Z,2.20
2023-05-10T07:39:31.045Z,2.23
2023-05-10T07:41:58.375Z,2.10
2023-05-10T07:44:25.780Z,2.63
2023-05-10T07:46:53.496Z,2.40
2023-05-10T07:49:20.973Z,2.20
2023-05-10T07:51:48.301Z,2.30
2023-05-10T07:54:15.989Z,2.17
2023-05-10T07:56:48.028Z,2.33
2023-05-10T07:59:18.728Z,2.60
2023-05-10T08:01:46.472Z,2.47
2023-05-10T08:04:14.028Z,2.43
2023-05-10T08:06:41.806Z,2.40
2023-05-10T08:09:09.292Z,2.47
2023-05-10T08:11:36.833Z,2.10
2023-05-10T08:14:04.257Z,2.57
2023-05-10T08:16:31.604Z,2.30
2023-05-10T08:18:58.999Z,2.10
2023-05-10T08:21:27.277Z,2.53
2023-05-10T08:23:54.837Z,2.10
2023-05-10T08:26:22.571Z,2.50
2023-05-10T08:28:49.981Z,2.40
2023-05-10T08:31:17.480Z,2.43
2023-05-10T08:33:44.948Z,2.33
2023-05-10T08:36:12.381Z,2.47
2023-05-10T08:38:39.761Z,2.50
2023-05-10T08:41:07.531Z,2.27
2023-05-10T08:43:37.578Z,2.03
2023-05-10T08:46:06.959Z,2.33
2023-05-10T08:48:35.912Z,2.43
2023-05-10T08:51:04.891Z,2.33
2023-05-10T08:53:34.783Z,2.33
2023-05-10T08:56:05.137Z,2.03
2023-05-10T08:58:32.590Z,2.20
2023-05-10T09:01:00.735Z,2.23
2023-05-10T09:03:28.235Z,2.30
2023-05-10T09:05:56.892Z,2.20
2023-05-10T09:08:27.949Z,1.93
2023-05-10T09:10:56.432Z,2.13
2023-05-10T09:13:24.225Z,2.50
2023-05-10T09:15:52.380Z,2.63
2023-05-10T09:18:19.893Z,2.07
2023-05-10T09:20:47.506Z,1.97
2023-05-10T09:23:14.782Z,2.07
2023-05-10T09:25:43.634Z,1.87
2023-05-10T09:28:11.844Z,2.10
2023-05-10T09:30:39.374Z,2.63
2023-05-10T09:33:06.980Z,2.17
2023-05-10T09:35:34.928Z,2.00
2023-05-10T09:38:05.375Z,2.20
2023-05-10T09:40:33.099Z,2.47
2023-05-10T09:43:04.822Z,2.07
2023-05-10T09:45:33.161Z,1.90
2023-05-10T09:48:02.915Z,2.20
2023-05-10T09:50:30.870Z,2.17
2023-05-10T09:53:04.228Z,2.40
2023-05-10T09:55:37.849Z,2.30
2023-05-10T09:58:07.774Z,1.93
2023-05-10T10:00:39.386Z,2.60
2023-05-10T10:03:07.129Z,2.63
2023-05-10T10:05:35.524Z,2.40
2023-05-10T10:08:05.431Z,2.40
2023-05-10T10:10:33.239Z,2.00
2023-05-10T10:13:00.684Z,2.40
2023-05-10T10:15:28.025Z,2.73
2023-05-10T10:17:55.811Z,2.43
2023-05-10T10:20:25.027Z,2.50
2023-05-10T10:22:52.425Z,2.40
2023-05-10T10:25:21.346Z,2.33
2023-05-10T10:27:55.077Z,2.10
2023-05-10T10:30:44.908Z,2.10
2023-05-10T10:33:28.865Z,2.23
2023-05-10T10:35:57.165Z,2.60
2023-05-10T10:38:24.436Z,2.10
2023-05-10T10:41:03.811Z,2.27
2023-05-10T10:43:31.367Z,2.47
2023-05-10T10:46:18.457Z,2.63
2023-05-10T10:48:49.968Z,2.23
2023-05-10T10:51:17.598Z,2.50
2023-05-10T10:53:45.565Z,2.80
2023-05-10T10:56:14.771Z,2.50
2023-05-10T10:58:42.838Z,2.30
2023-05-10T11:01:14.545Z,2.80
2023-05-10T11:03:42.209Z,2.40
2023-05-10T11:06:09.910Z,2.53
2023-05-10T11:08:46.841Z,2.87
2023-05-10T11:11:16.455Z,3.03
2023-05-10T11:13:44.806Z,2.77
2023-05-10T11:16:16.802Z,3.10
2023-05-10T11:19:03.336Z,2.63
2023-05-10T11:21:34.630Z,2.70
2023-05-10T11:24:07.123Z,3.10
2023-05-10T11:26:36.189Z,2.83
2023-05-10T11:29:05.867Z,3.13
2023-05-10T11:31:33.432Z,2.43
2023-05-10T11:34:04.620Z,2.53
2023-05-10T11:36:35.958Z,2.43
2023-05-10T11:39:06.033Z,3.30
2023-05-10T11:41:33.612Z,2.60
2023-05-10T11:44:01.069Z,3.07
2023-05-10T11:46:29.808Z,3.17
2023-05-10T11:49:08.137Z,3.47
2023-05-10T11:51:40.415Z,2.60
2023-05-10T11:54:11.828Z,3.30
2023-05-10T11:56:39.708Z,3.10
2023-05-10T11:59:07.174Z,3.07
2023-05-10T12:01:34.807Z,3.60
2023-05-10T12:04:02.562Z,3.17
2023-05-10T12:06:32.313Z,3.23
2023-05-10T12:09:00.046Z,3.87
2023-05-10T12:11:28.429Z,3.60
2023-05-10T12:13:57.135Z,3.60
2023-05-10T12:16:25.659Z,3.53
2023-05-10T12:18:53.677Z,3.67
2023-05-10T12:21:22.148Z,3.50
2023-05-10T12:23:53.543Z,3.60
2023-05-10T12:26:25.424Z,3.77
2023-05-10T12:31:51.460Z,3.50
2023-05-10T12:34:45.464Z,3.83
2023-05-10T12:37:12.751Z,3.63
2023-05-10T12:39:41.445Z,3.80
2023-05-10T12:42:08.742Z,3.70
2023-05-10T12:44:36.159Z,2.93
2023-05-10T12:47:03.549Z,2.80
2023-05-10T12:49:31.104Z,3.20
2023-05-10T12:51:58.375Z,2.80
2023-05-10T12:54:25.734Z,3.13
2023-05-10T12:56:53.039Z,3.20
2023-05-10T12:59:20.382Z,3.53
2023-05-10T13:01:47.708Z,3.10
2023-05-10T13:04:15.081Z,3.10
2023-05-10T13:06:42.431Z,3.50
2023-05-10T13:09:09.720Z,3.63
2023-05-10T13:11:37.481Z,3.20
2023-05-10T13:14:04.830Z,3.73
2023-05-10T13:16:33.055Z,3.20
2023-05-10T13:19:00.664Z,2.77
2023-05-10T13:21:28.314Z,3.20
2023-05-10T13:23:55.654Z,3.67
2023-05-10T13:26:22.931Z,3.03
2023-05-10T13:28:52.311Z,3.17
2023-05-10T13:31:19.862Z,3.77
2023-05-10T13:33:47.357Z,4.90
2023-05-10T13:36:14.846Z,3.23
2023-05-10T13:38:42.418Z,3.10
2023-05-10T13:41:09.774Z,3.57
2023-05-10T13:43:37.250Z,3.23
2023-05-10T13:46:04.694Z,2.93
2023-05-10T13:48:32.501Z,3.80
2023-05-10T13:50:59.995Z,3.30
2023-05-10T13:53:27.684Z,3.03
2023-05-10T13:55:54.972Z,3.80
2023-05-10T13:58:22.399Z,3.50
2023-05-10T14:00:50.031Z,3.40
2023-05-10T14:03:18.113Z,3.33
2023-05-10T14:05:46.250Z,3.67
2023-05-10T14:08:14.224Z,3.47
2023-05-10T14:10:41.650Z,2.83
2023-05-10T14:13:09.048Z,3.17
2023-05-10T14:15:36.560Z,3.53
2023-05-10T14:18:03.974Z,3.03
2023-05-10T14:20:33.101Z,3.60
2023-05-10T14:23:00.445Z,3.57
2023-05-10T14:25:28.129Z,2.83
2023-05-10T14:27:55.728Z,3.10
2023-05-10T14:30:23.110Z,2.90
2023-05-10T14:32:50.632Z,3.03
2023-05-10T14:35:19.745Z,3.17
2023-05-10T14:37:47.605Z,3.47
2023-05-10T14:40:16.049Z,3.27
2023-05-10T14:42:44.443Z,3.20
2023-05-10T14:45:13.037Z,2.90
2023-05-10T14:47:40.434Z,3.30
2023-05-10T14:50:08.043Z,2.77
2023-05-10T14:52:35.967Z,3.23
2023-05-10T14:55:03.530Z,3.10
2023-05-10T14:57:31.020Z,3.20
2023-05-10T14:59:58.404Z,3.00
2023-05-10T15:02:26.274Z,3.20
2023-05-10T15:04:54.016Z,3.40
2023-05-10T15:07:21.996Z,3.73
2023-05-10T15:09:49.402Z,3.70
2023-05-10T15:12:16.675Z,3.07
2023-05-10T15:14:43.956Z,3.50
2023-05-10T15:17:11.578Z,3.50
2023-05-10T15:19:38.902Z,2.93
2023-05-10T15:22:06.511Z,2.87
2023-05-10T15:24:33.806Z,3.60
2023-05-10T15:27:01.709Z,3.50
2023-05-10T15:29:29.107Z,2.73
2023-05-10T15:31:56.800Z,2.90
2023-05-10T15:34:24.311Z,3.00
2023-05-10T15:36:51.578Z,3.10
2023-05-10T15:39:19.008Z,3.50
2023-05-10T15:41:46.514Z,3.37
2023-05-10T15:44:13.874Z,3.00
2023-05-10T15:46:41.455Z,2.60
2023-05-10T15:49:08.823Z,2.87
2023-05-10T15:51:36.798Z,2.60
2023-05-10T15:54:07.739Z,2.57
2023-05-10T15:56:36.032Z,3.23
2023-05-10T15:59:03.804Z,3.10
2023-05-10T16:01:32.440Z,2.70
2023-05-10T16:03:59.952Z,3.07
2023-05-10T16:06:27.550Z,3.20
2023-05-10T16:08:55.206Z,3.00
2023-05-10T16:11:22.712Z,2.83
2023-05-10T16:13:50.090Z,3.10
2023-05-10T16:16:17.501Z,2.83
2023-05-10T16:18:44.953Z,2.53
2023-05-10T16:21:12.582Z,3.00
2023-05-10T16:23:40.206Z,2.40
2023-05-10T16:26:07.703Z,3.20
2023-05-10T16:28:35.255Z,2.70
2023-05-10T16:31:02.844Z,2.77
2023-05-10T16:33:30.425Z,2.70
2023-05-10T16:35:57.798Z,2.63
2023-05-10T16:38:25.113Z,2.50
2023-05-10T16:40:52.386Z,2.93
2023-05-10T16:43:19.754Z,2.60
2023-05-10T16:45:47.124Z,2.67
2023-05-10T16:48:14.737Z,2.70
2023-05-10T16:50:45.205Z,3.07
2023-05-10T16:53:13.325Z,2.60
2023-05-10T16:55:40.908Z,2.90
2023-05-10T16:58:08.423Z,2.60
2023-05-10T17:00:36.317Z,2.67
2023-05-10T17:03:03.733Z,3.20
2023-05-10T17:05:31.247Z,2.40
2023-05-10T17:07:58.696Z,2.27
2023-05-10T17:10:26.043Z,2.77
2023-05-10T17:12:53.908Z,2.50
2023-05-10T17:15:21.815Z,2.73
2023-05-10T17:17:52.211Z,2.60
2023-05-10T17:20:19.759Z,2.53
2023-05-10T17:22:47.123Z,2.50
2023-05-10T17:25:15.994Z,2.43
2023-05-10T17:27:44.006Z,2.60
2023-05-10T17:30:11.673Z,2.50
2023-05-10T17:32:39.174Z,2.47
2023-05-10T17:35:07.342Z,2.40
2023-05-10T17:37:34.660Z,2.33
2023-05-10T17:40:03.403Z,2.43
2023-05-10T17:42:30.947Z,2.50
2023-05-10T17:44:58.264Z,2.10
2023-05-10T17:47:25.638Z,2.17
2023-05-10T17:49:53.255Z,2.50
2023-05-10T17:52:20.778Z,2.47
2023-05-10T17:54:48.205Z,2.33
2023-05-10T17:57:15.549Z,2.40
2023-05-10T17:59:42.877Z,3.23
2023-05-10T18:02:10.292Z,2.10
2023-05-10T18:04:40.014Z,2.57
2023-05-10T18:07:08.125Z,2.67
2023-05-10T18:09:35.751Z,2.73
2023-05-10T18:12:03.590Z,2.43
2023-05-10T18:14:40.575Z,2.57
2023-05-10T18:17:09.197Z,2.50
2023-05-10T18:19:36.748Z,2.50
2023-05-10T18:22:04.219Z,2.70
2023-05-10T18:24:38.413Z,2.60
2023-05-10T18:27:07.029Z,2.60
2023-05-10T18:29:34.614Z,3.17
2023-05-10T18:32:02.201Z,3.47
2023-05-10T18:34:29.746Z,2.90
2023-05-10T18:36:57.261Z,2.77
2023-05-10T18:39:25.075Z,2.77
2023-05-10T18:41:52.619Z,3.10
2023-05-10T18:44:22.360Z,3.27
2023-05-10T18:46:54.053Z,3.10
2023-05-10T18:49:21.494Z,2.87
2023-05-10T18:51:48.857Z,3.03
2023-05-10T18:54:16.304Z,3.07
2023-05-10T18:56:45.233Z,2.47
2023-05-10T18:59:12.846Z,2.80
2023-05-10T19:01:41.384Z,2.73
2023-05-10T19:04:09.134Z,2.53
2023-05-10T19:06:36.900Z,2.97
2023-05-10T19:09:04.436Z,2.30
2023-05-10T19:11:34.109Z,2.83
2023-05-10T19:14:01.795Z,2.73
2023-05-10T19:16:30.460Z,3.27
2023-05-10T19:18:58.219Z,2.87
2023-05-10T19:21:25.779Z,2.77
2023-05-10T19:23:53.628Z,3.23
2023-05-10T19:26:21.130Z,2.97
2023-05-10T19:28:48.700Z,2.90
2023-05-10T19:31:16.512Z,3.20
2023-05-10T19:33:43.961Z,3.17
2023-05-10T19:36:11.658Z,3.37
2023-05-10T19:38:39.098Z,3.67
2023-05-10T19:41:06.483Z,3.13
2023-05-10T19:43:34.562Z,2.60
2023-05-10T19:46:02.737Z,3.07
2023-05-10T19:48:30.178Z,3.50
2023-05-10T19:51:06.337Z,3.00
2023-05-10T19:53:35.952Z,2.63
2023-05-10T19:56:05.389Z,2.43
2023-05-10T19:58:33.373Z,2.90
2023-05-10T20:01:02.618Z,3.20
2023-05-10T20:03:30.334Z,2.70
2023-05-10T20:05:57.766Z,2.90
2023-05-10T20:08:25.500Z,2.77
2023-05-10T20:10:53.157Z,2.40
2023-05-10T20:13:22.994Z,2.67
2023-05-10T20:15:50.441Z,2.53
2023-05-10T20:18:17.867Z,2.97
2023-05-10T20:20:46.274Z,3.30
2023-05-10T20:23:15.081Z,2.73
2023-05-10T20:25:42.828Z,2.43
2023-05-10T20:28:11.104Z,2.57
2023-05-10T20:30:38.534Z,3.30
2023-05-10T20:33:05.995Z,2.77
2023-05-10T20:35:34.244Z,2.80
2023-05-10T20:38:02.397Z,2.60
2023-05-10T20:40:30.988Z,2.30
2023-05-10T20:42:58.345Z,2.80
2023-05-10T20:45:25.778Z,2.33
2023-05-10T20:47:53.772Z,2.37
2023-05-10T20:50:21.279Z,2.87
2023-05-10T20:52:50.988Z,2.80
2023-05-10T20:55:19.785Z,2.40
2023-05-10T20:57:47.636Z,2.67
2023-05-10T21:00:15.604Z,2.90
2023-05-10T21:02:43.634Z,2.50
2023-05-10T21:05:11.038Z,2.80
2023-05-10T21:07:39.414Z,2.17
2023-05-10T21:10:11.336Z,2.57
2023-05-10T21:12:38.788Z,2.70
2023-05-10T21:15:06.617Z,3.00
2023-05-10T21:17:34.313Z,2.33
2023-05-10T21:20:01.642Z,2.47
2023-05-10T21:22:29.096Z,2.50
2023-05-10T21:24:56.413Z,2.87
2023-05-10T21:27:23.726Z,3.13
2023-05-10T21:29:51.646Z,2.93
2023-05-10T21:32:19.012Z,2.40
2023-05-10T21:34:46.472Z,2.23
2023-05-10T21:37:13.800Z,2.90
2023-05-10T21:39:41.103Z,2.60
2023-05-10T21:42:08.525Z,3.13
2023-05-10T21:44:37.039Z,2.70
2023-05-10T21:47:04.478Z,3.03
2023-05-10T21:49:31.868Z,3.17
2023-05-10T21:51:59.214Z,2.73
2023-05-10T21:54:26.930Z,2.80
2023-05-10T21:56:54.514Z,2.70
2023-05-10T21:59:22.093Z,2.67
2023-05-10T22:01:49.663Z,2.80
2023-05-10T22:04:17.088Z,2.70
2023-05-10T22:06:45.184Z,3.00
2023-05-10T22:09:12.486Z,2.30
2023-05-10T22:11:39.819Z,2.40
2023-05-10T22:14:07.282Z,2.70
2023-05-10T22:16:34.670Z,2.43
2023-05-10T22:19:02.132Z,2.67
2023-05-10T22:21:29.452Z,2.63
2023-05-10T22:23:56.824Z,2.63
2023-05-10T22:26:24.401Z,2.43
2023-05-10T22:28:51.764Z,2.47
2023-05-10T22:31:19.141Z,2.70
2023-05-10T22:33:46.589Z,2.40
2023-05-10T22:36:15.197Z,2.30
2023-05-10T22:38:42.634Z,2.17
2023-05-10T22:41:10.036Z,2.67
2023-05-10T22:43:37.783Z,2.60
2023-05-10T22:46:05.211Z,2.30
2023-05-10T22:48:34.372Z,2.10
2023-05-10T22:51:01.682Z,2.10
2023-05-10T22:53:29.042Z,2.20
2023-05-10T22:55:56.502Z,2.03
2023-05-10T22:58:23.913Z,1.90
2023-05-10T23:00:51.304Z,2.90
2023-05-10T23:03:18.793Z,2.30
2023-05-10T23:05:46.284Z,2.27
2023-05-10T23:08:13.728Z,2.17
2023-05-10T23:10:41.158Z,2.27
2023-05-10T23:13:08.606Z,2.27
2023-05-10T23:15:36.438Z,2.20
2023-05-10T23:18:05.858Z,2.30
2023-05-10T23:20:33.480Z,2.13
2023-05-10T23:23:00.935Z,2.30
2023-05-10T23:25:28.692Z,2.47
2023-05-10T23:27:56.996Z,1.90
2023-05-10T23:30:24.321Z,2.10
2023-05-10T23:32:51.691Z,2.40
2023-05-10T23:35:19.063Z,2.40
2023-05-10T23:37:46.371Z,1.90
2023-05-10T23:40:14.325Z,2.57
2023-05-10T23:42:41.674Z,1.90
2023-05-10T23:45:09.305Z,2.30
2023-05-10T23:47:36.830Z,2.60
2023-05-10T23:50:05.359Z,2.50
2023-05-10T23:52:33.518Z,2.17
2023-05-10T23:55:00.913Z,2.40
2023-05-10T23:57:28.243Z,2.13
2023-05-10T23:59:55.549Z,2.43
